| time (UTC) | temp C | wind direction | speed KPH | gust KPH | rain 1hr cm | rain 24hr cm | rain mn cm | humidity % | barometer mb |
| 20260507123016 | 10 | 28 | 0.0 | 1.6 | 0.00 | 0.00 | 0.00 | 92 | 1015.9 |
| 20260507122016 | 10 | 0.0 | 0.0 | 0.00 | 0.00 | 0.00 | 92 | 1015.8 | |
| 20260507121017 | 10 | 0.0 | 0.0 | 0.00 | 0.00 | 0.00 | 92 | 1015.8 | |
| 20260507120016 | 10 | 0.0 | 0.0 | 0.00 | 0.00 | 0.00 | 92 | 1015.7 | |
| 20260507115016 | 10 | 0.0 | 0.0 | 0.00 | 0.00 | 0.00 | 93 | 1015.7 | |
| 20260507113016 | 10 | 0.0 | 1.6 | 0.00 | 0.00 | 0.00 | 92 | 1015.8 | |
| 20260507111036 | 10 | 0.0 | 1.6 | 0.00 | 0.00 | 0.00 | 92 | 1016.0 | |
| 20260507110016 | 10 | 44 | 0.0 | 3.2 | 0.00 | 0.00 | 0.00 | 92 | 1016.1 |
| 20260507104036 | 10 | 39 | 1.6 | 4.8 | 0.00 | 0.00 | 0.00 | 92 | 1016.2 |
| 20260507103016 | 10 | 39 | 1.6 | 3.2 | 0.00 | 0.00 | 0.00 | 92 | 1016.2 |
| 20260507102033 | 10 | 39 | 1.6 | 4.8 | 0.00 | 0.00 | 0.00 | 92 | 1016.4 |
| 20260507100038 | 10 | 24 | 1.6 | 4.8 | 0.00 | 0.00 | 0.00 | 91 | 1016.5 |
| 20260507095038 | 11 | 0.0 | 0.0 | 0.00 | 0.00 | 0.00 | 91 | 1016.6 | |
| 20260507094016 | 11 | 24 | 0.0 | 3.2 | 0.00 | 0.00 | 0.00 | 91 | 1016.7 |
| 20260507093057 | 11 | 24 | 1.6 | 3.2 | 0.00 | 0.00 | 0.00 | 91 | 1016.6 |
| 20260507092016 | 11 | 24 | 1.6 | 3.2 | 0.00 | 0.00 | 0.00 | 91 | 1016.8 |
| 20260507091036 | 11 | 24 | 0.0 | 3.2 | 0.00 | 0.00 | 0.00 | 91 | 1016.9 |
| 20260507090016 | 11 | 24 | 1.6 | 3.2 | 0.00 | 0.00 | 0.00 | 91 | 1016.9 |
| 20260507085016 | 11 | 0.0 | 0.0 | 0.00 | 0.00 | 0.00 | 91 | 1017.0 | |
| 20260507084015 | 11 | 0.0 | 0.0 | 0.00 | 0.00 | 0.00 | 90 | 1017.1 | |
| 20260507083016 | 11 | 10 | 0.0 | 3.2 | 0.00 | 0.00 | 0.00 | 90 | 1017.3 |
| 20260507082036 | 11 | 24 | 0.0 | 3.2 | 0.00 | 0.00 | 0.00 | 90 | 1017.3 |
| 20260507081015 | 11 | 24 | 1.6 | 4.8 | 0.00 | 0.00 | 0.00 | 89 | 1017.4 |
| 20260507080016 | 12 | 7 | 1.6 | 4.8 | 0.00 | 0.00 | 0.00 | 89 | 1017.4 |
| 20260507075036 | 12 | 14 | 3.2 | 4.8 | 0.00 | 0.00 | 0.00 | 89 | 1017.4 |
| 20260507074015 | 12 | 0.0 | 0.0 | 0.00 | 0.00 | 0.00 | 89 | 1017.4 | |
| 20260507072015 | 12 | 53 | 0.0 | 3.2 | 0.00 | 0.00 | 0.00 | 89 | 1017.6 |
| 20260507071015 | 12 | 29 | 0.0 | 3.2 | 0.00 | 0.00 | 0.00 | 88 | 1017.7 |
| 20260507070036 | 12 | 30 | 0.0 | 3.2 | 0.00 | 0.00 | 0.00 | 88 | 1017.7 |
| 20260507065015 | 13 | 29 | 0.0 | 3.2 | 0.00 | 0.00 | 0.00 | 88 | 1017.7 |
| 20260507064015 | 13 | 58 | 1.6 | 3.2 | 0.00 | 0.00 | 0.00 | 88 | 1017.8 |
| 20260507062016 | 13 | 0.0 | 0.0 | 0.00 | 0.00 | 0.00 | 87 | 1017.6 | |
| 20260507061102 | 13 | 0.0 | 0.0 | 0.00 | 0.00 | 0.00 | 86 | 1017.6 | |
| 20260507060015 | 13 | 0.0 | 0.0 | 0.00 | 0.00 | 0.00 | 86 | 1017.6 | |
| 20260507054039 | 13 | 71 | 0.0 | 3.2 | 0.00 | 0.00 | 0.00 | 86 | 1017.8 |
| 20260507053027 | 14 | 32 | 0.0 | 3.2 | 0.00 | 0.00 | 0.00 | 85 | 1017.8 |
| 20260507052035 | 14 | 71 | 1.6 | 3.2 | 0.00 | 0.00 | 0.00 | 85 | 1017.8 |
| 20260507051015 | 14 | 95 | 0.0 | 3.2 | 0.00 | 0.00 | 0.00 | 84 | 1017.7 |
| 20260507050057 | 14 | 102 | 1.6 | 4.8 | 0.00 | 0.00 | 0.00 | 84 | 1017.6 |
| 20260507045036 | 15 | 109 | 1.6 | 3.2 | 0.00 | 0.00 | 0.00 | 83 | 1017.6 |
| 20260507044015 | 15 | 109 | 0.0 | 3.2 | 0.00 | 0.00 | 0.00 | 83 | 1017.5 |
| 20260507043015 | 15 | 121 | 0.0 | 3.2 | 0.00 | 0.00 | 0.00 | 82 | 1017.5 |
| 20260507042015 | 15 | 120 | 1.6 | 4.8 | 0.00 | 0.00 | 0.00 | 81 | 1017.5 |
| 20260507041035 | 15 | 203 | 0.0 | 1.6 | 0.00 | 0.00 | 0.00 | 81 | 1017.5 |
| 20260507040015 | 15 | 212 | 1.6 | 8.0 | 0.00 | 0.00 | 0.00 | 80 | 1017.3 |
| 20260507035041 | 16 | 208 | 3.2 | 8.0 | 0.00 | 0.00 | 0.00 | 80 | 1017.2 |
| 20260507034038 | 16 | 186 | 1.6 | 8.0 | 0.00 | 0.00 | 0.00 | 80 | 1017.0 |
| 20260507033038 | 16 | 187 | 1.6 | 6.4 | 0.00 | 0.00 | 0.00 | 79 | 1017.1 |
| 20260507032123 | 16 | 206 | 3.2 | 6.4 | 0.00 | 0.00 | 0.00 | 78 | 1017.0 |
| 20260507031017 | 16 | 187 | 4.8 | 11.3 | 0.00 | 0.00 | 0.00 | 77 | 1016.9 |
| 20260507030057 | 17 | 189 | 3.2 | 9.7 | 0.00 | 0.00 | 0.00 | 76 | 1016.8 |
| 20260507025035 | 17 | 206 | 4.8 | 9.7 | 0.00 | 0.00 | 0.00 | 74 | 1016.8 |
| 20260507024038 | 17 | 191 | 4.8 | 11.3 | 0.00 | 0.00 | 0.00 | 71 | 1016.7 |
| 20260507023017 | 18 | 202 | 6.4 | 11.3 | 0.00 | 0.00 | 0.00 | 69 | 1016.6 |
| 20260507021058 | 18 | 201 | 4.8 | 12.9 | 0.00 | 0.00 | 0.00 | 65 | 1016.4 |
| 20260507020119 | 19 | 187 | 8.0 | 16.1 | 0.00 | 0.00 | 0.00 | 62 | 1016.4 |
| 20260507015017 | 19 | 199 | 4.8 | 12.9 | 0.00 | 0.00 | 0.00 | 60 | 1016.2 |
| 20260507014038 | 20 | 189 | 6.4 | 16.1 | 0.00 | 0.00 | 0.00 | 59 | 1016.2 |
| 20260507013059 | 20 | 181 | 8.0 | 14.5 | 0.00 | 0.00 | 0.00 | 58 | 1016.1 |
| 20260507012017 | 20 | 184 | 8.0 | 20.9 | 0.00 | 0.00 | 0.00 | 58 | 1016.1 |
| 20260507011058 | 21 | 193 | 6.4 | 14.5 | 0.00 | 0.00 | 0.00 | 58 | 1016.0 |
| 20260507010037 | 21 | 216 | 8.0 | 19.3 | 0.00 | 0.00 | 0.00 | 58 | 1015.8 |
| 20260507005018 | 21 | 205 | 9.7 | 17.7 | 0.00 | 0.00 | 0.00 | 57 | 1015.9 |
| 20260507004018 | 21 | 194 | 8.0 | 19.3 | 0.00 | 0.00 | 0.00 | 57 | 1015.8 |
| 20260507003058 | 21 | 200 | 11.3 | 20.9 | 0.00 | 0.00 | 0.00 | 58 | 1015.8 |
| 20260507002018 | 21 | 196 | 11.3 | 20.9 | 0.00 | 0.00 | 0.00 | 59 | 1015.7 |
| 20260507001017 | 21 | 204 | 8.0 | 19.3 | 0.00 | 0.00 | 0.00 | 59 | 1015.6 |
| 20260507000041 | 22 | 210 | 9.7 | 19.3 | 0.00 | 0.00 | 0.00 | 58 | 1015.5 |
| 20260506235037 | 22 | 201 | 11.3 | 20.9 | 0.00 | 0.00 | 0.00 | 58 | 1015.5 |
| 20260506234058 | 22 | 217 | 12.9 | 22.5 | 0.00 | 0.00 | 0.00 | 58 | 1015.4 |
| 20260506233019 | 22 | 219 | 11.3 | 20.9 | 0.00 | 0.00 | 0.00 | 58 | 1015.5 |
| 20260506232018 | 22 | 208 | 12.9 | 27.4 | 0.00 | 0.00 | 0.00 | 57 | 1015.5 |
| 20260506231118 | 22 | 212 | 11.3 | 22.5 | 0.00 | 0.00 | 0.00 | 57 | 1015.5 |
| 20260506230038 | 22 | 223 | 12.9 | 24.1 | 0.00 | 0.00 | 0.00 | 56 | 1015.5 |
| 20260506225139 | 23 | 209 | 12.9 | 22.5 | 0.00 | 0.00 | 0.00 | 57 | 1015.5 |
| 20260506224039 | 23 | 219 | 12.9 | 24.1 | 0.00 | 0.00 | 0.00 | 57 | 1015.6 |
| 20260506223018 | 22 | 210 | 11.3 | 24.1 | 0.00 | 0.00 | 0.00 | 58 | 1015.7 |
| 20260506222037 | 22 | 215 | 11.3 | 25.7 | 0.00 | 0.00 | 0.00 | 59 | 1015.8 |
| 20260506221020 | 23 | 214 | 12.9 | 27.4 | 0.00 | 0.00 | 0.00 | 58 | 1016.0 |
| 20260506215017 | 22 | 226 | 11.3 | 22.5 | 0.00 | 0.00 | 0.00 | 59 | 1016.2 |
| 20260506214020 | 23 | 211 | 12.9 | 24.1 | 0.00 | 0.00 | 0.00 | 58 | 1016.3 |
| 20260506213017 | 23 | 205 | 12.9 | 27.4 | 0.00 | 0.00 | 0.00 | 58 | 1016.4 |
| 20260506212017 | 23 | 216 | 12.9 | 24.1 | 0.00 | 0.00 | 0.00 | 57 | 1016.4 |
| 20260506211017 | 23 | 197 | 9.7 | 22.5 | 0.00 | 0.00 | 0.00 | 57 | 1016.4 |
| 20260506210104 | 23 | 218 | 9.7 | 19.3 | 0.00 | 0.00 | 0.00 | 57 | 1016.4 |
| 20260506205017 | 23 | 212 | 12.9 | 24.1 | 0.00 | 0.00 | 0.00 | 58 | 1016.4 |
| 20260506204017 | 22 | 208 | 12.9 | 22.5 | 0.00 | 0.00 | 0.00 | 58 | 1016.4 |
| 20260506203017 | 22 | 223 | 9.7 | 22.5 | 0.00 | 0.00 | 0.00 | 59 | 1016.4 |
| 20260506202027 | 22 | 211 | 11.3 | 22.5 | 0.00 | 0.00 | 0.00 | 58 | 1016.6 |
| 20260506201017 | 22 | 202 | 11.3 | 22.5 | 0.00 | 0.00 | 0.00 | 59 | 1016.7 |
| 20260506200016 | 22 | 223 | 11.3 | 24.1 | 0.00 | 0.00 | 0.00 | 57 | 1016.9 |
| 20260506195017 | 23 | 199 | 12.9 | 27.4 | 0.00 | 0.00 | 0.00 | 55 | 1017.0 |
| 20260506194058 | 23 | 205 | 11.3 | 20.9 | 0.00 | 0.00 | 0.00 | 53 | 1017.1 |
| 20260506192017 | 23 | 244 | 6.4 | 14.5 | 0.00 | 0.00 | 0.00 | 50 | 1017.4 |
| 20260506191037 | 22 | 151 | 3.2 | 12.9 | 0.00 | 0.00 | 0.00 | 52 | 1017.6 |
| 20260506190140 | 22 | 175 | 4.8 | 11.3 | 0.00 | 0.00 | 0.00 | 54 | 1017.7 |
| 20260506185017 | 21 | 183 | 3.2 | 6.4 | 0.00 | 0.00 | 0.00 | 53 | 1017.8 |
| 20260506184017 | 21 | 302 | 4.8 | 11.3 | 0.00 | 0.00 | 0.00 | 53 | 1017.9 |
| 20260506183016 | 21 | 244 | 4.8 | 11.3 | 0.00 | 0.00 | 0.00 | 55 | 1018.0 |
| 20260506181016 | 21 | 249 | 4.8 | 11.3 | 0.00 | 0.00 | 0.00 | 55 | 1018.2 |
| 20260506180037 | 21 | 82 | 4.8 | 12.9 | 0.00 | 0.00 | 0.00 | 57 | 1018.3 |
| 20260506174023 | 19 | 239 | 4.8 | 11.3 | 0.00 | 0.00 | 0.00 | 59 | 1018.4 |
| 20260506173104 | 19 | 169 | 1.6 | 6.4 | 0.00 | 0.00 | 0.00 | 60 | 1018.4 |
| 20260506172038 | 19 | 187 | 3.2 | 6.4 | 0.00 | 0.00 | 0.00 | 60 | 1018.5 |
| 20260506171124 | 18 | 158 | 3.2 | 6.4 | 0.00 | 0.00 | 0.00 | 60 | 1018.5 |
| 20260506170159 | 18 | 64 | 1.6 | 8.0 | 0.00 | 0.00 | 0.00 | 62 | 1018.5 |
| 20260506165035 | 18 | 121 | 3.2 | 6.4 | 0.00 | 0.00 | 0.00 | 64 | 1018.5 |
| 20260506164113 | 17 | 197 | 3.2 | 11.3 | 0.00 | 0.00 | 0.00 | 65 | 1018.5 |
| 20260506163037 | 17 | 170 | 4.8 | 9.7 | 0.00 | 0.00 | 0.00 | 67 | 1018.5 |
| 20260506162016 | 17 | 224 | 3.2 | 9.7 | 0.00 | 0.00 | 0.00 | 69 | 1018.5 |
| 20260506161017 | 17 | 227 | 4.8 | 9.7 | 0.00 | 0.00 | 0.00 | 70 | 1018.5 |
| 20260506160017 | 16 | 176 | 3.2 | 9.7 | 0.00 | 0.00 | 0.00 | 70 | 1018.4 |
| 20260506155023 | 16 | 57 | 1.6 | 4.8 | 0.00 | 0.00 | 0.00 | 71 | 1018.4 |
| 20260506154016 | 16 | 192 | 1.6 | 4.8 | 0.00 | 0.00 | 0.00 | 73 | 1018.5 |
| 20260506153016 | 15 | 114 | 3.2 | 11.3 | 0.00 | 0.00 | 0.00 | 75 | 1018.5 |
| 20260506152047 | 15 | 53 | 3.2 | 8.0 | 0.00 | 0.00 | 0.00 | 78 | 1018.6 |
| 20260506151017 | 14 | 47 | 3.2 | 6.4 | 0.00 | 0.00 | 0.00 | 80 | 1018.6 |
| 20260506150016 | 13 | 56 | 6.4 | 9.7 | 0.00 | 0.00 | 0.00 | 84 | 1018.6 |
| 20260506145017 | 12 | 62 | 3.2 | 9.7 | 0.00 | 0.00 | 0.00 | 88 | 1018.5 |
| 20260506144037 | 11 | 57 | 6.4 | 11.3 | 0.00 | 0.00 | 0.00 | 91 | 1018.5 |
| 20260506143118 | 11 | 46 | 3.2 | 11.3 | 0.00 | 0.00 | 0.00 | 94 | 1018.5 |
| 20260506141119 | 10 | 7 | 3.2 | 4.8 | 0.00 | 0.00 | 0.00 | 95 | 1018.3 |
| 20260506140117 | 9 | 12 | 1.6 | 4.8 | 0.00 | 0.00 | 0.00 | 95 | 1018.2 |
| 20260506135017 | 8 | 358 | 1.6 | 4.8 | 0.00 | 0.00 | 0.00 | 95 | 1018.2 |
| 20260506134057 | 8 | 352 | 3.2 | 4.8 | 0.00 | 0.00 | 0.00 | 94 | 1018.1 |
| 20260506133100 | 8 | 352 | 3.2 | 4.8 | 0.00 | 0.00 | 0.00 | 94 | 1018.1 |
| 20260506132021 | 8 | 352 | 1.6 | 3.2 | 0.00 | 0.00 | 0.00 | 94 | 1018.0 |
| 20260506131122 | 8 | 352 | 1.6 | 3.2 | 0.00 | 0.00 | 0.00 | 94 | 1017.9 |
| 20260506130016 | 8 | 352 | 1.6 | 3.2 | 0.00 | 0.00 | 0.00 | 93 | 1017.9 |
| 20260506125037 | 8 | 351 | 3.2 | 4.8 | 0.00 | 0.00 | 0.00 | 94 | 1017.8 |
| 20260506124016 | 8 | 353 | 3.2 | 4.8 | 0.00 | 0.00 | 0.00 | 93 | 1017.8 |